createdAt,value
2024-02-02T00:00:47.701Z,6.88
2024-02-02T00:03:14.697Z,6.55
2024-02-02T00:05:41.468Z,6.70
2024-02-02T00:08:08.157Z,6.50
2024-02-02T00:10:35.056Z,6.93
2024-02-02T00:13:01.931Z,8.23
2024-02-02T00:15:29.122Z,7.75
2024-02-02T00:17:55.994Z,6.20
2024-02-02T00:20:22.909Z,7.82
2024-02-02T00:22:49.649Z,6.38
2024-02-02T00:25:16.447Z,6.68
2024-02-02T00:27:43.926Z,7.28
2024-02-02T00:30:11.424Z,8.45
2024-02-02T00:32:41.184Z,6.95
2024-02-02T00:35:08.109Z,6.97
2024-02-02T00:37:34.790Z,6.47
2024-02-02T00:40:01.469Z,6.75
2024-02-02T00:42:28.449Z,6.93
2024-02-02T00:44:55.397Z,6.80
2024-02-02T00:47:22.261Z,6.80
2024-02-02T00:49:48.982Z,6.50
2024-02-02T00:52:15.873Z,6.65
2024-02-02T00:54:42.620Z,7.97
2024-02-02T00:57:09.412Z,6.53
2024-02-02T00:59:36.122Z,7.00
2024-02-02T01:02:02.849Z,7.57
2024-02-02T01:04:29.730Z,7.15
2024-02-02T01:06:56.528Z,6.88
2024-02-02T01:09:23.328Z,7.13
2024-02-02T01:11:54.494Z,6.65
2024-02-02T01:14:23.625Z,7.88
2024-02-02T01:16:50.425Z,8.77
2024-02-02T01:19:17.423Z,8.05
2024-02-02T01:21:44.582Z,9.00
2024-02-02T01:24:11.708Z,9.40
2024-02-02T01:26:38.580Z,8.98
2024-02-02T01:29:05.308Z,9.27
2024-02-02T01:31:32.055Z,10.27
2024-02-02T01:33:59.364Z,7.53
2024-02-02T01:36:26.168Z,8.80
2024-02-02T01:38:55.684Z,9.27
2024-02-02T01:41:22.577Z,8.07
2024-02-02T01:43:49.253Z,9.00
2024-02-02T01:46:16.330Z,8.40
2024-02-02T01:48:43.321Z,9.80
2024-02-02T01:51:10.168Z,8.98
2024-02-02T01:53:36.940Z,9.43
2024-02-02T01:56:04.562Z,9.70
2024-02-02T01:58:32.068Z,9.63
2024-02-02T02:00:58.942Z,9.87
2024-02-02T02:03:25.802Z,9.63
2024-02-02T02:05:52.719Z,8.95
2024-02-02T02:08:19.914Z,11.48
2024-02-02T02:10:47.295Z,10.57
2024-02-02T02:13:14.103Z,9.98
2024-02-02T02:15:40.939Z,9.52
2024-02-02T02:18:07.683Z,9.77
2024-02-02T02:20:34.620Z,10.00
2024-02-02T02:23:02.144Z,9.25
2024-02-02T02:25:29.324Z,10.68
2024-02-02T02:27:56.021Z,9.15
2024-02-02T02:30:23.173Z,9.73
2024-02-02T02:32:50.425Z,10.20
2024-02-02T02:35:18.323Z,9.45
2024-02-02T02:37:45.059Z,10.10
2024-02-02T02:40:12.371Z,10.65
2024-02-02T02:42:39.259Z,10.65
2024-02-02T02:45:06.572Z,10.80
2024-02-02T02:47:33.450Z,10.60
2024-02-02T02:50:00.211Z,12.32
2024-02-02T02:52:26.897Z,12.88
2024-02-02T02:54:53.610Z,13.35
2024-02-02T02:57:20.315Z,12.18
2024-02-02T02:59:47.065Z,12.57
2024-02-02T03:02:13.810Z,13.82
2024-02-02T03:04:40.597Z,12.70
2024-02-02T03:07:07.431Z,13.10
2024-02-02T03:09:34.309Z,12.63
2024-02-02T03:12:01.229Z,12.20
2024-02-02T03:14:28.523Z,12.05
2024-02-02T03:16:55.306Z,12.32
2024-02-02T03:19:22.049Z,12.63
2024-02-02T03:21:48.803Z,12.98
2024-02-02T03:24:15.671Z,12.85
2024-02-02T03:26:42.937Z,12.23
2024-02-02T03:29:09.732Z,12.07
2024-02-02T03:31:36.410Z,11.38
2024-02-02T03:34:03.311Z,10.70
2024-02-02T03:36:30.144Z,11.15
2024-02-02T03:38:56.891Z,11.48
2024-02-02T03:41:23.620Z,10.85
2024-02-02T03:43:50.560Z,10.13
2024-02-02T03:46:17.286Z,9.68
2024-02-02T03:48:44.151Z,10.80
2024-02-02T03:51:11.135Z,9.60
2024-02-02T03:53:37.873Z,9.80
2024-02-02T03:56:04.939Z,9.73
2024-02-02T03:58:31.654Z,9.55
2024-02-02T04:00:58.472Z,9.27
2024-02-02T04:03:25.536Z,9.73
2024-02-02T04:05:52.479Z,7.85
2024-02-02T04:08:19.244Z,9.45
2024-02-02T04:10:46.036Z,8.43
2024-02-02T04:13:12.790Z,8.05
2024-02-02T04:15:41.099Z,8.98
2024-02-02T04:20:34.789Z,8.10
2024-02-02T04:23:01.572Z,8.27
2024-02-02T04:25:28.277Z,8.27
2024-02-02T04:27:55.015Z,7.93
2024-02-02T04:30:21.733Z,7.63
2024-02-02T04:32:48.572Z,8.98
2024-02-02T04:35:15.376Z,8.73
2024-02-02T04:37:43.216Z,8.48
2024-02-02T04:40:11.146Z,7.70
2024-02-02T04:42:37.896Z,8.15
2024-02-02T04:45:05.184Z,9.05
2024-02-02T04:47:31.974Z,8.57
2024-02-02T04:49:58.831Z,8.55
2024-02-02T04:52:25.539Z,8.60
2024-02-02T04:54:54.894Z,9.40
2024-02-02T04:57:21.631Z,7.97
2024-02-02T04:59:48.353Z,8.43
2024-02-02T05:02:15.164Z,9.27
2024-02-02T05:04:42.266Z,10.40
2024-02-02T05:07:09.673Z,11.02
2024-02-02T05:09:36.462Z,10.90
2024-02-02T05:12:03.430Z,10.20
2024-02-02T05:14:30.210Z,11.18
2024-02-02T05:16:56.878Z,12.15
2024-02-02T05:19:23.672Z,12.70
2024-02-02T05:21:50.457Z,11.77
2024-02-02T05:24:31.525Z,12.77
2024-02-02T05:27:04.499Z,12.80
2024-02-02T05:29:31.202Z,13.82
2024-02-02T05:31:58.007Z,14.82
2024-02-02T05:34:25.143Z,13.75
2024-02-02T05:36:51.861Z,14.48
2024-02-02T05:39:18.572Z,14.80
2024-02-02T05:41:45.290Z,16.08
2024-02-02T05:44:12.007Z,15.35
2024-02-02T05:46:38.707Z,15.50
2024-02-02T05:49:05.520Z,16.98
2024-02-02T05:51:32.586Z,15.82
2024-02-02T05:53:59.585Z,17.77
2024-02-02T05:56:26.301Z,17.67
2024-02-02T05:58:53.046Z,16.40
2024-02-02T06:01:19.777Z,17.42
2024-02-02T06:03:46.597Z,18.45
2024-02-02T06:06:13.745Z,17.10
2024-02-02T06:08:40.573Z,17.35
2024-02-02T06:11:07.396Z,17.52
2024-02-02T06:13:34.585Z,17.30
2024-02-02T06:16:01.766Z,16.58
2024-02-02T06:18:28.667Z,18.55
2024-02-02T06:20:55.597Z,17.67
2024-02-02T06:23:22.318Z,17.08
2024-02-02T06:25:49.046Z,15.73
2024-02-02T06:28:15.844Z,16.95
2024-02-02T06:30:49.328Z,14.85
2024-02-02T06:33:18.066Z,13.73
2024-02-02T06:35:45.639Z,14.15
2024-02-02T06:38:12.616Z,13.88
2024-02-02T06:40:39.858Z,14.98
2024-02-02T06:43:06.737Z,11.63
2024-02-02T06:45:33.546Z,11.32
2024-02-02T06:48:00.543Z,11.70
2024-02-02T06:50:27.358Z,9.60
2024-02-02T06:52:54.157Z,9.85
2024-02-02T06:55:20.876Z,10.38
2024-02-02T06:57:50.060Z,11.18
2024-02-02T07:00:17.665Z,9.45
2024-02-02T07:02:44.800Z,10.23
2024-02-02T07:05:14.415Z,10.32
2024-02-02T07:07:41.796Z,8.93
2024-02-02T07:10:15.348Z,8.88
2024-02-02T07:13:01.125Z,9.50
2024-02-02T07:15:40.727Z,8.98
2024-02-02T07:18:37.565Z,8.88
2024-02-02T07:21:06.066Z,8.45
2024-02-02T07:23:37.161Z,8.35
2024-02-02T07:26:12.131Z,8.55
2024-02-02T07:28:39.869Z,8.98
2024-02-02T07:31:09.107Z,9.15
2024-02-02T07:33:44.749Z,8.35
2024-02-02T07:36:32.452Z,8.73
2024-02-02T07:38:59.720Z,8.48
2024-02-02T07:41:30.436Z,8.43
2024-02-02T07:44:00.775Z,7.35
2024-02-02T07:46:28.246Z,8.10
2024-02-02T07:48:55.356Z,8.38
2024-02-02T07:51:24.026Z,8.98
2024-02-02T07:53:51.272Z,9.48
2024-02-02T07:56:23.835Z,8.60
2024-02-02T07:58:51.329Z,8.57
2024-02-02T08:01:18.261Z,10.23
2024-02-02T08:03:45.238Z,9.25
2024-02-02T08:06:14.146Z,8.20
2024-02-02T08:08:41.082Z,9.88
2024-02-02T08:11:07.929Z,7.82
2024-02-02T08:13:34.828Z,8.70
2024-02-02T08:16:01.666Z,8.45
2024-02-02T08:18:30.025Z,8.25
2024-02-02T08:20:57.007Z,9.05
2024-02-02T08:23:23.812Z,8.35
2024-02-02T08:25:50.668Z,8.35
2024-02-02T08:28:17.514Z,8.80
2024-02-02T08:30:44.254Z,8.43
2024-02-02T08:33:11.231Z,8.25
2024-02-02T08:35:38.019Z,7.90
2024-02-02T08:38:08.752Z,7.65
2024-02-02T08:40:41.016Z,7.75
2024-02-02T08:43:22.351Z,6.50
2024-02-02T08:45:49.104Z,7.20
2024-02-02T08:48:24.848Z,7.20
2024-02-02T08:50:52.631Z,6.70
2024-02-02T08:53:19.549Z,8.65
2024-02-02T08:55:47.263Z,7.13
2024-02-02T08:58:22.410Z,7.60
2024-02-02T09:00:50.880Z,7.50
2024-02-02T09:03:30.427Z,7.00
2024-02-02T09:05:59.881Z,7.10
2024-02-02T09:08:28.866Z,7.22
2024-02-02T09:11:07.652Z,7.32
2024-02-02T09:13:34.868Z,7.10
2024-02-02T09:16:01.576Z,6.68
2024-02-02T09:18:39.384Z,7.43
2024-02-02T09:21:08.694Z,6.60
2024-02-02T09:23:37.010Z,7.30
2024-02-02T09:26:17.858Z,7.03
2024-02-02T09:28:45.645Z,6.03
2024-02-02T09:31:21.989Z,6.63
2024-02-02T09:33:51.716Z,6.82
2024-02-02T09:36:21.687Z,6.72
2024-02-02T09:38:59.140Z,6.93
2024-02-02T09:42:05.405Z,6.57
2024-02-02T09:44:44.105Z,7.63
2024-02-02T09:47:35.844Z,7.05
2024-02-02T09:50:28.535Z,6.97
2024-02-02T09:53:29.115Z,7.45
2024-02-02T09:56:11.670Z,7.25
2024-02-02T09:59:16.388Z,7.05
2024-02-02T10:01:48.859Z,6.72
2024-02-02T10:04:33.474Z,7.10
2024-02-02T10:07:38.752Z,6.60
2024-02-02T10:10:16.189Z,7.47
2024-02-02T10:12:48.819Z,7.13
2024-02-02T10:15:22.431Z,7.25
2024-02-02T10:18:10.521Z,7.43
2024-02-02T10:20:55.008Z,7.07
2024-02-02T10:23:38.105Z,8.93
2024-02-02T10:26:25.040Z,7.75
2024-02-02T10:29:13.707Z,7.78
2024-02-02T10:32:05.855Z,7.55
2024-02-02T10:34:44.898Z,8.25
2024-02-02T10:37:20.712Z,8.27
2024-02-02T10:39:52.155Z,8.27
2024-02-02T10:42:46.545Z,9.10
2024-02-02T10:45:43.190Z,8.82
2024-02-02T10:48:37.910Z,10.07
2024-02-02T10:51:38.737Z,8.70
2024-02-02T10:54:31.109Z,10.00
2024-02-02T10:57:28.151Z,9.48
2024-02-02T11:00:14.557Z,10.43
2024-02-02T11:02:44.312Z,10.73
2024-02-02T11:05:23.703Z,10.07
2024-02-02T11:08:10.133Z,11.63
2024-02-02T11:10:44.536Z,11.27
2024-02-02T11:13:23.408Z,11.95
2024-02-02T11:16:03.227Z,11.77
2024-02-02T11:18:51.519Z,11.85
2024-02-02T11:21:27.505Z,10.63
2024-02-02T11:24:50.070Z,10.88
2024-02-02T11:27:20.389Z,11.45
2024-02-02T11:29:59.343Z,10.82
2024-02-02T11:33:01.806Z,10.80
2024-02-02T11:35:52.356Z,11.68
2024-02-02T11:38:41.179Z,10.95
2024-02-02T11:41:14.991Z,12.43
2024-02-02T11:43:43.571Z,12.75
2024-02-02T11:46:11.282Z,12.80
2024-02-02T11:48:40.992Z,12.85
2024-02-02T11:51:08.298Z,13.30
2024-02-02T11:53:38.388Z,13.05
2024-02-02T11:56:20.884Z,13.93
2024-02-02T11:58:54.942Z,13.63
2024-02-02T12:01:28.482Z,12.88
2024-02-02T12:04:17.540Z,14.30
2024-02-02T12:07:09.655Z,13.10
2024-02-02T12:09:47.761Z,12.88
2024-02-02T12:12:21.652Z,13.68
2024-02-02T12:14:54.507Z,12.13
2024-02-02T12:17:22.593Z,13.32
2024-02-02T12:19:49.813Z,14.60
2024-02-02T12:22:16.713Z,13.23
2024-02-02T12:24:43.520Z,13.85
2024-02-02T12:27:10.352Z,13.35
2024-02-02T12:29:37.639Z,13.55
2024-02-02T12:32:07.129Z,14.82
2024-02-02T12:34:34.114Z,13.55
2024-02-02T12:37:02.710Z,13.85
2024-02-02T12:39:33.105Z,14.10
2024-02-02T12:42:00.356Z,14.95
2024-02-02T12:44:27.669Z,14.20
2024-02-02T12:46:54.465Z,15.43
2024-02-02T12:49:25.560Z,14.85
2024-02-02T12:51:58.027Z,15.65
2024-02-02T12:54:25.264Z,15.52
2024-02-02T12:56:52.186Z,15.95
2024-02-02T12:59:19.839Z,15.73
2024-02-02T13:01:49.226Z,15.90
2024-02-02T13:04:16.832Z,16.27
2024-02-02T13:06:45.406Z,16.38
2024-02-02T13:09:27.839Z,17.15
2024-02-02T13:11:56.032Z,16.45
2024-02-02T13:14:33.695Z,16.42
2024-02-02T13:17:12.522Z,16.53
2024-02-02T13:19:49.048Z,15.80
2024-02-02T13:22:22.998Z,16.45
2024-02-02T13:24:51.497Z,17.23
2024-02-02T13:27:20.226Z,17.13
2024-02-02T13:29:57.983Z,16.80
2024-02-02T13:32:28.522Z,15.23
2024-02-02T13:34:59.963Z,16.80
2024-02-02T13:37:31.130Z,18.85
2024-02-02T13:40:00.062Z,16.70
2024-02-02T13:42:27.800Z,16.58
2024-02-02T13:44:54.548Z,17.50
2024-02-02T13:47:21.925Z,16.67
2024-02-02T13:49:54.010Z,18.38
2024-02-02T13:52:20.812Z,18.17
2024-02-02T13:54:47.615Z,19.85
2024-02-02T13:57:15.966Z,18.83
2024-02-02T13:59:44.313Z,19.05
2024-02-02T14:02:11.033Z,19.65
2024-02-02T14:04:38.702Z,20.60
2024-02-02T14:07:15.721Z,19.73
2024-02-02T14:09:43.828Z,19.02
2024-02-02T14:12:12.953Z,18.83
2024-02-02T14:14:40.109Z,19.75
2024-02-02T14:17:07.603Z,21.08
2024-02-02T14:19:34.871Z,20.92
2024-02-02T14:22:09.034Z,21.70
2024-02-02T14:24:49.948Z,21.23
2024-02-02T14:27:17.046Z,20.65
2024-02-02T14:29:44.755Z,19.90
2024-02-02T14:32:11.818Z,21.27
2024-02-02T14:34:38.948Z,20.92
2024-02-02T14:37:06.187Z,19.83
2024-02-02T14:39:33.093Z,22.70
2024-02-02T14:42:00.977Z,22.85
2024-02-02T14:44:29.803Z,21.92
2024-02-02T14:46:57.703Z,21.33
2024-02-02T14:49:26.334Z,21.77
2024-02-02T14:51:56.385Z,21.77
2024-02-02T14:54:25.049Z,21.88
2024-02-02T14:56:52.331Z,21.55
2024-02-02T14:59:29.613Z,21.13
2024-02-02T15:01:57.477Z,21.23
2024-02-02T15:04:24.392Z,22.70
2024-02-02T15:06:51.370Z,22.73
2024-02-02T15:09:18.182Z,23.55
2024-02-02T15:11:45.829Z,21.17
2024-02-02T15:14:13.645Z,22.48
2024-02-02T15:16:40.587Z,21.52
2024-02-02T15:19:07.419Z,21.38
2024-02-02T15:21:34.402Z,21.17
2024-02-02T15:24:01.854Z,21.58
2024-02-02T15:26:29.058Z,23.75
2024-02-02T15:28:55.785Z,21.70
2024-02-02T15:31:22.949Z,23.50
2024-02-02T15:33:51.519Z,24.15
2024-02-02T15:36:18.414Z,23.25
2024-02-02T15:39:05.773Z,24.60
2024-02-02T15:41:31.907Z,24.05
2024-02-02T15:43:58.656Z,23.90
2024-02-02T15:46:25.471Z,22.88
2024-02-02T15:48:52.757Z,21.90
2024-02-02T15:51:20.113Z,23.38
2024-02-02T15:53:47.375Z,23.08
2024-02-02T15:56:18.240Z,23.42
2024-02-02T15:58:45.163Z,23.98
2024-02-02T16:01:13.369Z,24.70
2024-02-02T16:03:43.754Z,23.60
2024-02-02T16:06:11.683Z,23.48
2024-02-02T16:08:38.973Z,22.73
2024-02-02T16:11:05.902Z,23.15
2024-02-02T16:13:32.827Z,24.23
2024-02-02T16:16:00.251Z,23.23
2024-02-02T16:18:27.324Z,23.35
2024-02-02T16:20:54.675Z,23.20
2024-02-02T16:23:21.504Z,25.55
2024-02-02T16:25:48.338Z,24.52
2024-02-02T16:28:15.080Z,22.70
2024-02-02T16:30:43.495Z,24.23
2024-02-02T16:33:10.614Z,26.08
2024-02-02T16:35:37.444Z,24.00
2024-02-02T16:38:04.337Z,21.80
2024-02-02T16:40:31.203Z,24.38
2024-02-02T16:42:58.362Z,23.20
2024-02-02T16:45:25.142Z,23.10
2024-02-02T16:47:54.487Z,22.27
2024-02-02T16:50:21.389Z,22.48
2024-02-02T16:52:48.273Z,23.13
2024-02-02T16:55:15.065Z,23.67
2024-02-02T16:57:41.906Z,22.13
2024-02-02T17:00:09.800Z,23.30
2024-02-02T17:02:36.965Z,21.92
2024-02-02T17:05:04.285Z,24.45
2024-02-02T17:07:31.474Z,23.60
2024-02-02T17:09:58.494Z,22.90
2024-02-02T17:12:26.685Z,22.83
2024-02-02T17:14:53.517Z,22.15
2024-02-02T17:17:20.313Z,22.23
2024-02-02T17:19:47.071Z,23.08
2024-02-02T17:22:13.767Z,21.85
2024-02-02T17:24:41.322Z,21.52
2024-02-02T17:27:08.239Z,22.40
2024-02-02T17:29:34.982Z,21.45
2024-02-02T17:32:01.679Z,22.38
2024-02-02T17:34:28.470Z,21.02
2024-02-02T17:36:55.325Z,20.23
2024-02-02T17:39:22.128Z,20.67
2024-02-02T17:41:48.865Z,20.85
2024-02-02T17:44:21.945Z,22.55
2024-02-02T17:46:51.437Z,22.60
2024-02-02T17:49:18.700Z,22.20
2024-02-02T17:51:45.568Z,22.02
2024-02-02T17:54:12.484Z,23.55
2024-02-02T17:56:39.268Z,21.67
2024-02-02T17:59:06.023Z,22.83
2024-02-02T18:01:34.904Z,21.88
2024-02-02T18:04:02.047Z,24.05
2024-02-02T18:06:29.106Z,24.02
2024-02-02T18:08:55.957Z,23.90
2024-02-02T18:11:22.669Z,24.75
2024-02-02T18:13:49.394Z,25.05
2024-02-02T18:16:16.276Z,25.40
2024-02-02T18:18:43.502Z,24.08
2024-02-02T18:21:10.928Z,24.65
2024-02-02T18:23:37.649Z,26.08
2024-02-02T18:26:05.420Z,24.95
2024-02-02T18:28:32.608Z,24.98
2024-02-02T18:30:59.788Z,25.92
2024-02-02T18:33:26.704Z,24.45
2024-02-02T18:35:53.497Z,26.90
2024-02-02T18:38:20.276Z,26.73
2024-02-02T18:40:50.731Z,26.50
2024-02-02T18:43:18.749Z,26.48
2024-02-02T18:45:45.679Z,25.23
2024-02-02T18:48:15.953Z,24.45
2024-02-02T18:50:43.275Z,24.70
2024-02-02T18:53:09.974Z,25.30
2024-02-02T18:55:36.644Z,24.83
2024-02-02T18:58:03.355Z,25.13
2024-02-02T19:00:31.003Z,24.65
2024-02-02T19:02:57.726Z,22.85
2024-02-02T19:05:24.475Z,25.52
2024-02-02T19:07:51.167Z,23.77
2024-02-02T19:10:19.931Z,24.75
2024-02-02T19:12:46.661Z,23.20
2024-02-02T19:15:13.446Z,22.55
2024-02-02T19:17:40.163Z,23.83
2024-02-02T19:20:07.626Z,22.35
2024-02-02T19:22:34.442Z,22.50
2024-02-02T19:25:01.117Z,23.17
2024-02-02T19:27:27.913Z,22.63
2024-02-02T19:29:54.595Z,24.08
2024-02-02T19:32:21.806Z,24.02
2024-02-02T19:34:48.711Z,22.98
2024-02-02T19:37:15.401Z,23.67
2024-02-02T19:39:42.279Z,22.45
2024-02-02T19:42:09.182Z,24.13
2024-02-02T19:44:35.922Z,23.50
2024-02-02T19:47:02.691Z,24.48
2024-02-02T19:49:29.571Z,24.92
2024-02-02T19:51:56.374Z,23.33
2024-02-02T19:54:23.308Z,25.17
2024-02-02T19:56:50.037Z,25.35
2024-02-02T19:59:16.822Z,23.42
2024-02-02T20:01:49.269Z,23.33
2024-02-02T20:04:16.408Z,24.63
2024-02-02T20:06:43.358Z,24.27
2024-02-02T20:09:10.663Z,23.58
2024-02-02T20:11:38.184Z,24.67
2024-02-02T20:14:05.025Z,24.50
2024-02-02T20:16:31.750Z,24.75
2024-02-02T20:18:58.671Z,24.05
2024-02-02T20:21:28.055Z,25.70
2024-02-02T20:23:56.292Z,24.17
2024-02-02T20:26:23.854Z,24.98
2024-02-02T20:28:51.749Z,24.63
2024-02-02T20:31:19.273Z,24.90
2024-02-02T20:33:46.590Z,25.83
2024-02-02T20:36:13.629Z,23.30
2024-02-02T20:38:43.310Z,25.88
2024-02-02T20:41:10.059Z,26.23
2024-02-02T20:43:36.787Z,28.45
2024-02-02T20:46:03.837Z,27.08
2024-02-02T20:48:30.653Z,27.95
2024-02-02T20:50:57.448Z,27.00
2024-02-02T20:53:24.259Z,30.25
2024-02-02T20:55:50.969Z,30.73
2024-02-02T20:58:17.799Z,31.52
2024-02-02T21:00:44.721Z,30.90
2024-02-02T21:03:11.700Z,30.75
2024-02-02T21:05:38.943Z,30.60
2024-02-02T21:08:06.224Z,31.48
2024-02-02T21:10:34.558Z,30.52
2024-02-02T21:13:01.286Z,30.63
2024-02-02T21:15:33.273Z,31.25
2024-02-02T21:18:07.070Z,30.13
2024-02-02T21:20:42.180Z,30.88
2024-02-02T21:23:08.881Z,31.45
2024-02-02T21:25:35.681Z,32.97
2024-02-02T21:28:02.361Z,33.17
2024-02-02T21:30:29.158Z,34.92
2024-02-02T21:32:55.921Z,31.15
2024-02-02T21:35:22.595Z,33.17
2024-02-02T21:37:49.295Z,31.27
2024-02-02T21:40:16.011Z,32.63
2024-02-02T21:42:42.707Z,31.95
2024-02-02T21:45:09.500Z,31.08
2024-02-02T21:47:36.185Z,32.30
2024-02-02T21:50:04.204Z,32.83
2024-02-02T21:52:31.490Z,27.70
2024-02-02T21:54:58.546Z,28.17
2024-02-02T21:57:25.299Z,30.40
2024-02-02T21:59:55.492Z,29.30
2024-02-02T22:02:22.445Z,28.48
2024-02-02T22:04:54.023Z,28.65
2024-02-02T22:07:21.282Z,29.05
2024-02-02T22:09:48.324Z,30.55
2024-02-02T22:12:15.265Z,29.20
2024-02-02T22:14:43.905Z,30.55
2024-02-02T22:19:39.305Z,29.85
2024-02-02T22:22:06.298Z,31.30
2024-02-02T22:24:33.030Z,31.70
2024-02-02T22:26:59.727Z,31.70
2024-02-02T22:29:26.397Z,32.35
2024-02-02T22:31:53.111Z,32.20
2024-02-02T22:34:19.872Z,32.28
2024-02-02T22:36:46.671Z,30.85
2024-02-02T22:39:15.042Z,32.65
2024-02-02T22:41:41.876Z,32.22
2024-02-02T22:44:08.878Z,31.15
2024-02-02T22:46:35.667Z,33.10
2024-02-02T22:49:02.519Z,33.25
2024-02-02T22:51:29.618Z,32.00
2024-02-02T22:53:56.389Z,33.33
2024-02-02T22:56:23.103Z,31.75
2024-02-02T22:58:49.775Z,32.45
2024-02-02T23:01:16.622Z,32.90
2024-02-02T23:03:43.658Z,32.17
2024-02-02T23:06:10.513Z,32.70
2024-02-02T23:08:37.297Z,30.85
2024-02-02T23:11:04.272Z,33.45
2024-02-02T23:13:30.957Z,31.52
2024-02-02T23:15:59.585Z,35.00
2024-02-02T23:18:27.898Z,33.72
2024-02-02T23:20:59.485Z,32.30
2024-02-02T23:23:26.882Z,32.85
2024-02-02T23:25:53.581Z,30.67
2024-02-02T23:28:20.256Z,31.25
2024-02-02T23:30:47.330Z,30.98
2024-02-02T23:33:14.722Z,32.00
2024-02-02T23:35:42.177Z,28.70
2024-02-02T23:38:09.443Z,30.48
2024-02-02T23:40:36.316Z,29.50
2024-02-02T23:43:03.044Z,28.85
2024-02-02T23:45:30.100Z,29.35
2024-02-02T23:47:56.965Z,28.55
2024-02-02T23:50:23.834Z,29.23
2024-02-02T23:52:50.549Z,27.67
2024-02-02T23:55:17.562Z,29.08
2024-02-02T23:57:44.566Z,28.38
